sensor_id;sensor_type;location;lat;lon;timestamp;temperature;humidity
52245;DHT22;55759;51.586;-1.758;2023-06-24T00:01:19;18.90;80.80
52245;DHT22;55759;51.586;-1.758;2023-06-24T00:03:45;18.90;81.10
52245;DHT22;55759;51.586;-1.758;2023-06-24T00:06:12;18.90;80.80
52245;DHT22;55759;51.586;-1.758;2023-06-24T00:08:46;18.90;81.00
52245;DHT22;55759;51.586;-1.758;2023-06-24T00:11:12;18.90;81.70
52245;DHT22;55759;51.586;-1.758;2023-06-24T00:13:41;18.90;82.00
52245;DHT22;55759;51.586;-1.758;2023-06-24T00:16:06;18.90;81.40
52245;DHT22;55759;51.586;-1.758;2023-06-24T00:18:33;18.90;80.60
52245;DHT22;55759;51.586;-1.758;2023-06-24T00:20:58;18.90;81.80
52245;DHT22;55759;51.586;-1.758;2023-06-24T00:23:24;18.90;80.20
52245;DHT22;55759;51.586;-1.758;2023-06-24T00:25:50;18.90;80.70
52245;DHT22;55759;51.586;-1.758;2023-06-24T00:28:16;18.90;81.20
52245;DHT22;55759;51.586;-1.758;2023-06-24T00:30:41;18.90;81.40
52245;DHT22;55759;51.586;-1.758;2023-06-24T00:33:07;18.90;80.90
52245;DHT22;55759;51.586;-1.758;2023-06-24T00:35:36;18.90;81.20
52245;DHT22;55759;51.586;-1.758;2023-06-24T00:38:02;18.80;81.20
52245;DHT22;55759;51.586;-1.758;2023-06-24T00:40:28;18.80;80.30
52245;DHT22;55759;51.586;-1.758;2023-06-24T00:42:54;18.70;81.80
52245;DHT22;55759;51.586;-1.758;2023-06-24T00:45:20;18.70;82.10
52245;DHT22;55759;51.586;-1.758;2023-06-24T00:47:45;18.70;81.30
52245;DHT22;55759;51.586;-1.758;2023-06-24T00:50:12;18.70;82.00
52245;DHT22;55759;51.586;-1.758;2023-06-24T00:52:37;18.70;81.80
52245;DHT22;55759;51.586;-1.758;2023-06-24T00:55:07;18.70;81.40
52245;DHT22;55759;51.586;-1.758;2023-06-24T00:57:33;18.60;81.80
52245;DHT22;55759;51.586;-1.758;2023-06-24T00:59:59;18.60;80.90
52245;DHT22;55759;51.586;-1.758;2023-06-24T01:02:25;18.60;82.40
52245;DHT22;55759;51.586;-1.758;2023-06-24T01:04:53;18.60;81.70
52245;DHT22;55759;51.586;-1.758;2023-06-24T01:07:19;18.60;81.10
52245;DHT22;55759;51.586;-1.758;2023-06-24T01:09:45;18.60;81.70
52245;DHT22;55759;51.586;-1.758;2023-06-24T01:12:13;18.50;81.70
52245;DHT22;55759;51.586;-1.758;2023-06-24T01:14:39;18.40;81.80
52245;DHT22;55759;51.586;-1.758;2023-06-24T01:17:10;18.40;81.50
52245;DHT22;55759;51.586;-1.758;2023-06-24T01:32:11;18.20;83.10
52245;DHT22;55759;51.586;-1.758;2023-06-24T01:34:57;18.20;82.00
52245;DHT22;55759;51.586;-1.758;2023-06-24T01:37:25;18.20;81.90
52245;DHT22;55759;51.586;-1.758;2023-06-24T01:39:59;18.30;81.30
52245;DHT22;55759;51.586;-1.758;2023-06-24T01:42:26;18.30;81.70
52245;DHT22;55759;51.586;-1.758;2023-06-24T01:44:54;18.40;81.20
52245;DHT22;55759;51.586;-1.758;2023-06-24T01:47:21;18.40;81.60
52245;DHT22;55759;51.586;-1.758;2023-06-24T01:49:48;18.40;82.10
52245;DHT22;55759;51.586;-1.758;2023-06-24T01:52:14;18.40;81.20
52245;DHT22;55759;51.586;-1.758;2023-06-24T01:54:41;18.50;81.00
52245;DHT22;55759;51.586;-1.758;2023-06-24T01:57:08;18.50;81.20
52245;DHT22;55759;51.586;-1.758;2023-06-24T01:59:35;18.50;80.00
52245;DHT22;55759;51.586;-1.758;2023-06-24T02:02:02;18.40;80.20
52245;DHT22;55759;51.586;-1.758;2023-06-24T02:04:28;18.40;79.90
52245;DHT22;55759;51.586;-1.758;2023-06-24T02:06:58;18.40;81.30
52245;DHT22;55759;51.586;-1.758;2023-06-24T02:09:25;18.30;80.80
52245;DHT22;55759;51.586;-1.758;2023-06-24T02:11:51;18.30;80.70
52245;DHT22;55759;51.586;-1.758;2023-06-24T02:14:17;18.20;81.90
52245;DHT22;55759;51.586;-1.758;2023-06-24T02:16:44;18.20;81.20
52245;DHT22;55759;51.586;-1.758;2023-06-24T02:19:11;18.10;81.70
52245;DHT22;55759;51.586;-1.758;2023-06-24T02:21:38;18.10;81.00
52245;DHT22;55759;51.586;-1.758;2023-06-24T02:24:04;18.10;82.10
52245;DHT22;55759;51.586;-1.758;2023-06-24T02:26:30;18.10;82.30
52245;DHT22;55759;51.586;-1.758;2023-06-24T02:28:56;18.00;82.60
52245;DHT22;55759;51.586;-1.758;2023-06-24T02:31:21;18.10;82.80
52245;DHT22;55759;51.586;-1.758;2023-06-24T02:33:47;18.10;81.70
52245;DHT22;55759;51.586;-1.758;2023-06-24T02:36:15;18.00;82.20
52245;DHT22;55759;51.586;-1.758;2023-06-24T02:38:41;18.10;81.80
52245;DHT22;55759;51.586;-1.758;2023-06-24T02:41:06;18.00;81.70
52245;DHT22;55759;51.586;-1.758;2023-06-24T02:43:32;18.10;82.20
52245;DHT22;55759;51.586;-1.758;2023-06-24T02:45:59;18.10;82.40
52245;DHT22;55759;51.586;-1.758;2023-06-24T02:48:26;18.10;81.80
52245;DHT22;55759;51.586;-1.758;2023-06-24T02:50:54;18.10;82.20
52245;DHT22;55759;51.586;-1.758;2023-06-24T02:53:19;18.10;81.50
52245;DHT22;55759;51.586;-1.758;2023-06-24T02:55:45;18.10;81.70
52245;DHT22;55759;51.586;-1.758;2023-06-24T02:58:11;18.10;82.20
52245;DHT22;55759;51.586;-1.758;2023-06-24T03:00:36;18.10;81.80
52245;DHT22;55759;51.586;-1.758;2023-06-24T03:03:03;18.10;83.00
52245;DHT22;55759;51.586;-1.758;2023-06-24T03:05:29;18.10;82.90
52245;DHT22;55759;51.586;-1.758;2023-06-24T03:07:55;18.10;83.00
52245;DHT22;55759;51.586;-1.758;2023-06-24T03:10:23;18.10;82.60
52245;DHT22;55759;51.586;-1.758;2023-06-24T03:12:48;18.10;83.10
52245;DHT22;55759;51.586;-1.758;2023-06-24T03:15:14;18.10;82.80
52245;DHT22;55759;51.586;-1.758;2023-06-24T03:17:39;18.10;83.30
52245;DHT22;55759;51.586;-1.758;2023-06-24T03:20:05;18.20;82.90
52245;DHT22;55759;51.586;-1.758;2023-06-24T03:22:32;18.20;83.30
52245;DHT22;55759;51.586;-1.758;2023-06-24T03:24:58;18.20;83.00
52245;DHT22;55759;51.586;-1.758;2023-06-24T03:27:24;18.20;82.80
52245;DHT22;55759;51.586;-1.758;2023-06-24T03:29:49;18.20;82.30
52245;DHT22;55759;51.586;-1.758;2023-06-24T03:32:15;18.20;83.20
52245;DHT22;55759;51.586;-1.758;2023-06-24T03:34:41;18.20;82.90
52245;DHT22;55759;51.586;-1.758;2023-06-24T03:37:06;18.20;83.10
52245;DHT22;55759;51.586;-1.758;2023-06-24T03:39:32;18.30;82.50
52245;DHT22;55759;51.586;-1.758;2023-06-24T03:41:58;18.30;82.50
52245;DHT22;55759;51.586;-1.758;2023-06-24T03:44:23;18.30;82.50
52245;DHT22;55759;51.586;-1.758;2023-06-24T03:46:49;18.40;82.80
52245;DHT22;55759;51.586;-1.758;2023-06-24T03:49:14;18.40;83.20
52245;DHT22;55759;51.586;-1.758;2023-06-24T03:51:40;18.40;82.80
52245;DHT22;55759;51.586;-1.758;2023-06-24T03:54:05;18.40;82.60
52245;DHT22;55759;51.586;-1.758;2023-06-24T03:56:31;18.40;82.40
52245;DHT22;55759;51.586;-1.758;2023-06-24T03:58:57;18.40;82.80
52245;DHT22;55759;51.586;-1.758;2023-06-24T04:01:22;18.40;83.10
52245;DHT22;55759;51.586;-1.758;2023-06-24T04:03:48;18.40;82.60
52245;DHT22;55759;51.586;-1.758;2023-06-24T04:06:13;18.50;82.90
52245;DHT22;55759;51.586;-1.758;2023-06-24T04:08:39;18.50;82.40
52245;DHT22;55759;51.586;-1.758;2023-06-24T04:11:05;18.50;82.90
52245;DHT22;55759;51.586;-1.758;2023-06-24T04:13:35;18.50;83.20
52245;DHT22;55759;51.586;-1.758;2023-06-24T04:16:01;18.50;82.90
52245;DHT22;55759;51.586;-1.758;2023-06-24T04:18:26;18.60;83.00
52245;DHT22;55759;51.586;-1.758;2023-06-24T04:20:53;18.60;82.70
52245;DHT22;55759;51.586;-1.758;2023-06-24T04:23:18;18.60;83.00
52245;DHT22;55759;51.586;-1.758;2023-06-24T04:25:44;18.60;83.10
52245;DHT22;55759;51.586;-1.758;2023-06-24T04:28:10;18.60;82.80
52245;DHT22;55759;51.586;-1.758;2023-06-24T04:30:35;18.60;82.20
52245;DHT22;55759;51.586;-1.758;2023-06-24T04:33:04;18.60;82.10
52245;DHT22;55759;51.586;-1.758;2023-06-24T04:35:29;18.60;82.20
52245;DHT22;55759;51.586;-1.758;2023-06-24T04:37:55;18.70;82.00
52245;DHT22;55759;51.586;-1.758;2023-06-24T04:40:21;18.70;82.20
52245;DHT22;55759;51.586;-1.758;2023-06-24T04:42:47;18.70;82.20
52245;DHT22;55759;51.586;-1.758;2023-06-24T04:45:12;18.80;82.20
52245;DHT22;55759;51.586;-1.758;2023-06-24T04:47:38;18.80;82.40
52245;DHT22;55759;51.586;-1.758;2023-06-24T04:50:04;18.80;82.50
52245;DHT22;55759;51.586;-1.758;2023-06-24T04:52:29;18.90;82.10
52245;DHT22;55759;51.586;-1.758;2023-06-24T04:54:55;18.90;82.20
52245;DHT22;55759;51.586;-1.758;2023-06-24T04:57:26;18.90;82.10
52245;DHT22;55759;51.586;-1.758;2023-06-24T04:59:52;19.00;81.50
52245;DHT22;55759;51.586;-1.758;2023-06-24T05:02:18;19.00;81.50
52245;DHT22;55759;51.586;-1.758;2023-06-24T05:04:43;19.10;81.40
52245;DHT22;55759;51.586;-1.758;2023-06-24T05:07:09;19.20;81.40
52245;DHT22;55759;51.586;-1.758;2023-06-24T05:09:34;19.20;80.80
52245;DHT22;55759;51.586;-1.758;2023-06-24T05:12:06;19.30;81.00
52245;DHT22;55759;51.586;-1.758;2023-06-24T05:14:33;19.30;81.00
52245;DHT22;55759;51.586;-1.758;2023-06-24T05:16:59;19.30;80.80
52245;DHT22;55759;51.586;-1.758;2023-06-24T05:19:25;19.30;80.70
52245;DHT22;55759;51.586;-1.758;2023-06-24T05:21:51;19.30;80.90
52245;DHT22;55759;51.586;-1.758;2023-06-24T05:24:16;19.20;81.20
52245;DHT22;55759;51.586;-1.758;2023-06-24T05:26:42;19.10;81.50
52245;DHT22;55759;51.586;-1.758;2023-06-24T05:29:07;19.10;82.30
52245;DHT22;55759;51.586;-1.758;2023-06-24T05:31:33;19.10;82.60
52245;DHT22;55759;51.586;-1.758;2023-06-24T05:33:59;19.10;82.00
52245;DHT22;55759;51.586;-1.758;2023-06-24T05:36:25;19.20;81.60
52245;DHT22;55759;51.586;-1.758;2023-06-24T05:38:51;19.20;81.70
52245;DHT22;55759;51.586;-1.758;2023-06-24T05:41:18;19.30;81.50
52245;DHT22;55759;51.586;-1.758;2023-06-24T05:43:44;19.30;81.60
52245;DHT22;55759;51.586;-1.758;2023-06-24T05:46:10;19.40;81.60
52245;DHT22;55759;51.586;-1.758;2023-06-24T05:48:35;19.60;81.00
52245;DHT22;55759;51.586;-1.758;2023-06-24T05:51:01;19.70;80.60
52245;DHT22;55759;51.586;-1.758;2023-06-24T05:53:27;19.70;80.40
52245;DHT22;55759;51.586;-1.758;2023-06-24T05:55:52;19.80;80.40
52245;DHT22;55759;51.586;-1.758;2023-06-24T05:58:18;19.80;80.30
52245;DHT22;55759;51.586;-1.758;2023-06-24T06:00:43;19.80;80.70
52245;DHT22;55759;51.586;-1.758;2023-06-24T06:03:09;19.70;80.10
52245;DHT22;55759;51.586;-1.758;2023-06-24T06:05:34;19.70;80.50
52245;DHT22;55759;51.586;-1.758;2023-06-24T06:08:00;19.70;81.10
52245;DHT22;55759;51.586;-1.758;2023-06-24T06:10:26;19.70;81.30
52245;DHT22;55759;51.586;-1.758;2023-06-24T06:12:51;19.70;80.90
52245;DHT22;55759;51.586;-1.758;2023-06-24T06:15:18;19.70;81.20
52245;DHT22;55759;51.586;-1.758;2023-06-24T06:17:45;19.80;81.40
52245;DHT22;55759;51.586;-1.758;2023-06-24T06:20:10;19.90;81.60
52245;DHT22;55759;51.586;-1.758;2023-06-24T06:22:36;19.90;81.70
52245;DHT22;55759;51.586;-1.758;2023-06-24T06:25:04;20.00;80.40
52245;DHT22;55759;51.586;-1.758;2023-06-24T06:27:30;20.10;80.30
52245;DHT22;55759;51.586;-1.758;2023-06-24T06:29:55;20.20;79.70
52245;DHT22;55759;51.586;-1.758;2023-06-24T06:32:21;20.30;79.70
52245;DHT22;55759;51.586;-1.758;2023-06-24T06:34:46;20.40;79.00
52245;DHT22;55759;51.586;-1.758;2023-06-24T06:37:12;20.50;79.40
52245;DHT22;55759;51.586;-1.758;2023-06-24T06:39:37;20.60;79.60
52245;DHT22;55759;51.586;-1.758;2023-06-24T06:42:03;20.70;77.70
52245;DHT22;55759;51.586;-1.758;2023-06-24T06:44:29;20.80;78.10
52245;DHT22;55759;51.586;-1.758;2023-06-24T06:46:54;21.00;78.20
52245;DHT22;55759;51.586;-1.758;2023-06-24T06:49:20;21.20;77.30
52245;DHT22;55759;51.586;-1.758;2023-06-24T06:51:45;21.40;75.70
52245;DHT22;55759;51.586;-1.758;2023-06-24T06:54:11;21.60;75.60
52245;DHT22;55759;51.586;-1.758;2023-06-24T06:56:36;21.80;75.80
52245;DHT22;55759;51.586;-1.758;2023-06-24T06:59:02;21.90;76.10
52245;DHT22;55759;51.586;-1.758;2023-06-24T07:01:28;21.90;74.80
52245;DHT22;55759;51.586;-1.758;2023-06-24T07:03:53;21.90;75.30
52245;DHT22;55759;51.586;-1.758;2023-06-24T07:06:19;22.00;74.90
52245;DHT22;55759;51.586;-1.758;2023-06-24T07:08:45;21.90;74.90
52245;DHT22;55759;51.586;-1.758;2023-06-24T07:11:10;22.00;74.40
52245;DHT22;55759;51.586;-1.758;2023-06-24T07:13:36;22.10;74.20
52245;DHT22;55759;51.586;-1.758;2023-06-24T07:16:02;22.10;75.60
52245;DHT22;55759;51.586;-1.758;2023-06-24T07:18:27;22.50;73.80
52245;DHT22;55759;51.586;-1.758;2023-06-24T07:20:55;22.90;71.90
52245;DHT22;55759;51.586;-1.758;2023-06-24T07:23:21;23.10;69.90
52245;DHT22;55759;51.586;-1.758;2023-06-24T07:25:47;23.40;70.30
52245;DHT22;55759;51.586;-1.758;2023-06-24T07:28:13;23.50;69.30
52245;DHT22;55759;51.586;-1.758;2023-06-24T07:30:40;23.60;68.90
52245;DHT22;55759;51.586;-1.758;2023-06-24T07:33:07;23.60;69.20
52245;DHT22;55759;51.586;-1.758;2023-06-24T07:35:32;23.80;69.50
52245;DHT22;55759;51.586;-1.758;2023-06-24T07:37:58;24.00;68.80
52245;DHT22;55759;51.586;-1.758;2023-06-24T07:40:24;24.10;66.80
52245;DHT22;55759;51.586;-1.758;2023-06-24T07:42:50;24.10;66.60
52245;DHT22;55759;51.586;-1.758;2023-06-24T07:45:15;24.20;68.00
52245;DHT22;55759;51.586;-1.758;2023-06-24T07:47:41;24.40;68.90
52245;DHT22;55759;51.586;-1.758;2023-06-24T07:50:06;24.50;66.40
52245;DHT22;55759;51.586;-1.758;2023-06-24T07:52:34;24.50;67.20
52245;DHT22;55759;51.586;-1.758;2023-06-24T07:54:59;24.40;66.60
52245;DHT22;55759;51.586;-1.758;2023-06-24T07:57:26;24.40;66.40
52245;DHT22;55759;51.586;-1.758;2023-06-24T07:59:52;24.40;66.60
52245;DHT22;55759;51.586;-1.758;2023-06-24T08:02:17;24.50;67.10
52245;DHT22;55759;51.586;-1.758;2023-06-24T08:04:43;24.60;65.20
52245;DHT22;55759;51.586;-1.758;2023-06-24T08:07:08;24.60;66.00
52245;DHT22;55759;51.586;-1.758;2023-06-24T08:09:34;24.70;66.80
52245;DHT22;55759;51.586;-1.758;2023-06-24T08:12:00;25.00;64.40
52245;DHT22;55759;51.586;-1.758;2023-06-24T08:14:25;25.20;65.00
52245;DHT22;55759;51.586;-1.758;2023-06-24T08:16:51;25.50;64.70
52245;DHT22;55759;51.586;-1.758;2023-06-24T08:19:16;25.60;64.80
52245;DHT22;55759;51.586;-1.758;2023-06-24T08:21:42;25.70;66.00
52245;DHT22;55759;51.586;-1.758;2023-06-24T08:24:07;25.70;61.80
52245;DHT22;55759;51.586;-1.758;2023-06-24T08:26:33;25.50;65.40
52245;DHT22;55759;51.586;-1.758;2023-06-24T08:29:02;25.60;65.00
52245;DHT22;55759;51.586;-1.758;2023-06-24T08:31:27;25.50;63.30
52245;DHT22;55759;51.586;-1.758;2023-06-24T08:33:53;25.50;63.00
52245;DHT22;55759;51.586;-1.758;2023-06-24T08:36:21;25.60;63.70
52245;DHT22;55759;51.586;-1.758;2023-06-24T08:38:47;25.70;64.70
52245;DHT22;55759;51.586;-1.758;2023-06-24T08:41:12;25.90;61.50
52245;DHT22;55759;51.586;-1.758;2023-06-24T08:43:38;26.10;62.30
52245;DHT22;55759;51.586;-1.758;2023-06-24T08:46:05;26.20;61.60
52245;DHT22;55759;51.586;-1.758;2023-06-24T08:48:31;26.10;63.10
52245;DHT22;55759;51.586;-1.758;2023-06-24T08:50:57;26.10;62.40
52245;DHT22;55759;51.586;-1.758;2023-06-24T08:53:23;26.20;63.30
52245;DHT22;55759;51.586;-1.758;2023-06-24T08:55:52;26.40;62.90
52245;DHT22;55759;51.586;-1.758;2023-06-24T08:58:18;26.50;61.00
52245;DHT22;55759;51.586;-1.758;2023-06-24T09:00:44;26.60;61.50
52245;DHT22;55759;51.586;-1.758;2023-06-24T09:03:09;26.60;61.60
52245;DHT22;55759;51.586;-1.758;2023-06-24T09:05:35;26.80;59.80
52245;DHT22;55759;51.586;-1.758;2023-06-24T09:08:01;27.10;59.30
52245;DHT22;55759;51.586;-1.758;2023-06-24T09:10:30;27.20;58.90
52245;DHT22;55759;51.586;-1.758;2023-06-24T09:12:56;27.40;59.10
52245;DHT22;55759;51.586;-1.758;2023-06-24T09:15:22;27.60;57.40
52245;DHT22;55759;51.586;-1.758;2023-06-24T09:17:48;27.90;59.60
52245;DHT22;55759;51.586;-1.758;2023-06-24T09:20:13;28.10;57.40
52245;DHT22;55759;51.586;-1.758;2023-06-24T09:22:42;28.20;59.50
52245;DHT22;55759;51.586;-1.758;2023-06-24T09:25:08;28.50;59.20
52245;DHT22;55759;51.586;-1.758;2023-06-24T09:27:33;28.70;58.10
52245;DHT22;55759;51.586;-1.758;2023-06-24T09:29:59;28.70;55.80
52245;DHT22;55759;51.586;-1.758;2023-06-24T09:32:33;28.60;57.00
52245;DHT22;55759;51.586;-1.758;2023-06-24T09:35:02;28.40;54.30
52245;DHT22;55759;51.586;-1.758;2023-06-24T09:37:28;28.50;56.00
52245;DHT22;55759;51.586;-1.758;2023-06-24T09:39:56;28.70;55.70
52245;DHT22;55759;51.586;-1.758;2023-06-24T09:42:22;28.90;56.50
52245;DHT22;55759;51.586;-1.758;2023-06-24T09:44:53;28.90;54.60
52245;DHT22;55759;51.586;-1.758;2023-06-24T09:50:22;28.70;54.00
52245;DHT22;55759;51.586;-1.758;2023-06-24T09:52:49;28.80;55.60
52245;DHT22;55759;51.586;-1.758;2023-06-24T09:55:16;29.10;54.00
52245;DHT22;55759;51.586;-1.758;2023-06-24T09:57:44;29.20;53.40
52245;DHT22;55759;51.586;-1.758;2023-06-24T10:00:10;29.30;56.20
52245;DHT22;55759;51.586;-1.758;2023-06-24T10:02:37;29.40;57.10
52245;DHT22;55759;51.586;-1.758;2023-06-24T10:05:03;29.40;51.50
52245;DHT22;55759;51.586;-1.758;2023-06-24T10:07:30;29.20;53.70
52245;DHT22;55759;51.586;-1.758;2023-06-24T10:10:01;29.50;56.80
52245;DHT22;55759;51.586;-1.758;2023-06-24T10:12:26;29.70;55.50
52245;DHT22;55759;51.586;-1.758;2023-06-24T10:14:54;29.80;51.70
52245;DHT22;55759;51.586;-1.758;2023-06-24T10:17:19;29.80;51.80
52245;DHT22;55759;51.586;-1.758;2023-06-24T10:19:45;29.80;51.60
52245;DHT22;55759;51.586;-1.758;2023-06-24T10:22:13;30.00;51.00
52245;DHT22;55759;51.586;-1.758;2023-06-24T10:24:40;30.00;49.60
52245;DHT22;55759;51.586;-1.758;2023-06-24T10:27:08;30.00;53.20
52245;DHT22;55759;51.586;-1.758;2023-06-24T10:29:34;31.00;53.60
52245;DHT22;55759;51.586;-1.758;2023-06-24T10:32:01;31.70;50.90
52245;DHT22;55759;51.586;-1.758;2023-06-24T10:34:31;31.70;49.20
52245;DHT22;55759;51.586;-1.758;2023-06-24T10:39:40;31.90;46.90
52245;DHT22;55759;51.586;-1.758;2023-06-24T10:44:45;35.20;41.60
52245;DHT22;55759;51.586;-1.758;2023-06-24T10:47:11;36.00;39.80
52245;DHT22;55759;51.586;-1.758;2023-06-24T10:49:36;36.30;41.40
52245;DHT22;55759;51.586;-1.758;2023-06-24T10:52:02;35.50;40.20
52245;DHT22;55759;51.586;-1.758;2023-06-24T10:54:28;35.10;41.90
52245;DHT22;55759;51.586;-1.758;2023-06-24T10:56:59;36.40;39.70
52245;DHT22;55759;51.586;-1.758;2023-06-24T10:59:25;37.00;39.40
52245;DHT22;55759;51.586;-1.758;2023-06-24T11:02:07;37.50;36.90
52245;DHT22;55759;51.586;-1.758;2023-06-24T11:04:32;36.90;36.80
52245;DHT22;55759;51.586;-1.758;2023-06-24T11:07:00;37.10;38.60
52245;DHT22;55759;51.586;-1.758;2023-06-24T11:09:26;37.10;37.50
52245;DHT22;55759;51.586;-1.758;2023-06-24T11:11:52;38.10;37.10
52245;DHT22;55759;51.586;-1.758;2023-06-24T11:14:21;39.80;33.70
52245;DHT22;55759;51.586;-1.758;2023-06-24T11:16:53;38.80;33.40
52245;DHT22;55759;51.586;-1.758;2023-06-24T11:19:42;36.90;38.30
52245;DHT22;55759;51.586;-1.758;2023-06-24T11:30:46;38.60;35.00
52245;DHT22;55759;51.586;-1.758;2023-06-24T11:36:36;36.20;39.60
52245;DHT22;55759;51.586;-1.758;2023-06-24T11:39:02;36.00;37.70
52245;DHT22;55759;51.586;-1.758;2023-06-24T11:47:30;33.60;39.90
52245;DHT22;55759;51.586;-1.758;2023-06-24T11:49:57;35.60;38.90
52245;DHT22;55759;51.586;-1.758;2023-06-24T11:52:32;36.10;38.70
52245;DHT22;55759;51.586;-1.758;2023-06-24T12:01:29;40.50;34.40
52245;DHT22;55759;51.586;-1.758;2023-06-24T12:33:22;42.20;30.70
52245;DHT22;55759;51.586;-1.758;2023-06-24T12:39:04;38.10;38.50
52245;DHT22;55759;51.586;-1.758;2023-06-24T12:41:37;36.80;37.80
52245;DHT22;55759;51.586;-1.758;2023-06-24T12:44:11;36.10;42.20
52245;DHT22;55759;51.586;-1.758;2023-06-24T12:46:37;36.00;41.90
52245;DHT22;55759;51.586;-1.758;2023-06-24T12:49:03;36.40;37.90
52245;DHT22;55759;51.586;-1.758;2023-06-24T12:51:49;36.90;38.30
52245;DHT22;55759;51.586;-1.758;2023-06-24T12:54:17;37.10;40.00
52245;DHT22;55759;51.586;-1.758;2023-06-24T12:56:43;36.90;36.10
52245;DHT22;55759;51.586;-1.758;2023-06-24T12:59:09;36.40;35.20
52245;DHT22;55759;51.586;-1.758;2023-06-24T13:01:41;36.10;39.90
52245;DHT22;55759;51.586;-1.758;2023-06-24T13:04:10;36.30;35.10
52245;DHT22;55759;51.586;-1.758;2023-06-24T13:06:36;36.10;39.40
52245;DHT22;55759;51.586;-1.758;2023-06-24T13:15:43;39.50;35.40
52245;DHT22;55759;51.586;-1.758;2023-06-24T13:18:12;38.00;33.60
52245;DHT22;55759;51.586;-1.758;2023-06-24T13:21:02;36.70;38.80
52245;DHT22;55759;51.586;-1.758;2023-06-24T13:26:58;37.20;34.80
52245;DHT22;55759;51.586;-1.758;2023-06-24T13:29:45;37.20;37.10
52245;DHT22;55759;51.586;-1.758;2023-06-24T13:32:10;37.10;38.10
52245;DHT22;55759;51.586;-1.758;2023-06-24T13:34:35;36.30;38.10
52245;DHT22;55759;51.586;-1.758;2023-06-24T13:37:01;35.70;38.00
52245;DHT22;55759;51.586;-1.758;2023-06-24T13:39:27;35.40;36.40
52245;DHT22;55759;51.586;-1.758;2023-06-24T13:41:53;35.20;42.10
52245;DHT22;55759;51.586;-1.758;2023-06-24T13:44:19;35.30;37.80
52245;DHT22;55759;51.586;-1.758;2023-06-24T13:46:44;35.30;39.20
52245;DHT22;55759;51.586;-1.758;2023-06-24T13:49:10;35.10;37.00
52245;DHT22;55759;51.586;-1.758;2023-06-24T13:51:38;34.90;38.20
52245;DHT22;55759;51.586;-1.758;2023-06-24T13:54:04;34.90;39.40
52245;DHT22;55759;51.586;-1.758;2023-06-24T13:56:30;35.80;38.90
52245;DHT22;55759;51.586;-1.758;2023-06-24T13:58:55;36.20;38.90
52245;DHT22;55759;51.586;-1.758;2023-06-24T14:01:21;36.60;37.40
52245;DHT22;55759;51.586;-1.758;2023-06-24T14:03:47;37.00;37.70
52245;DHT22;55759;51.586;-1.758;2023-06-24T14:06:13;37.40;36.40
52245;DHT22;55759;51.586;-1.758;2023-06-24T14:08:40;37.80;38.20
52245;DHT22;55759;51.586;-1.758;2023-06-24T14:11:06;40.70;35.10
52245;DHT22;55759;51.586;-1.758;2023-06-24T14:13:32;42.10;33.10
52245;DHT22;55759;51.586;-1.758;2023-06-24T14:15:58;41.40;28.20
52245;DHT22;55759;51.586;-1.758;2023-06-24T14:18:23;41.00;33.10
52245;DHT22;55759;51.586;-1.758;2023-06-24T14:20:50;40.10;33.90
52245;DHT22;55759;51.586;-1.758;2023-06-24T14:23:16;39.40;37.50
52245;DHT22;55759;51.586;-1.758;2023-06-24T14:25:41;38.60;37.50
52245;DHT22;55759;51.586;-1.758;2023-06-24T14:28:07;38.00;35.60
52245;DHT22;55759;51.586;-1.758;2023-06-24T14:30:33;37.60;39.20
52245;DHT22;55759;51.586;-1.758;2023-06-24T14:32:59;37.00;35.20
52245;DHT22;55759;51.586;-1.758;2023-06-24T14:35:25;36.60;39.40
52245;DHT22;55759;51.586;-1.758;2023-06-24T14:37:51;36.40;37.70
52245;DHT22;55759;51.586;-1.758;2023-06-24T14:40:17;36.10;40.70
52245;DHT22;55759;51.586;-1.758;2023-06-24T14:42:42;35.90;42.40
52245;DHT22;55759;51.586;-1.758;2023-06-24T14:45:08;35.90;42.40
52245;DHT22;55759;51.586;-1.758;2023-06-24T14:47:34;35.70;39.30
52245;DHT22;55759;51.586;-1.758;2023-06-24T14:49:59;35.50;42.20
52245;DHT22;55759;51.586;-1.758;2023-06-24T14:52:25;35.20;44.50
52245;DHT22;55759;51.586;-1.758;2023-06-24T14:54:51;35.00;42.50
52245;DHT22;55759;51.586;-1.758;2023-06-24T14:57:16;35.10;44.30
52245;DHT22;55759;51.586;-1.758;2023-06-24T14:59:42;34.90;41.70
52245;DHT22;55759;51.586;-1.758;2023-06-24T15:02:08;34.60;39.10
52245;DHT22;55759;51.586;-1.758;2023-06-24T15:04:35;34.60;40.00
52245;DHT22;55759;51.586;-1.758;2023-06-24T15:07:01;35.00;43.50
52245;DHT22;55759;51.586;-1.758;2023-06-24T15:09:26;35.20;44.60
52245;DHT22;55759;51.586;-1.758;2023-06-24T15:11:52;35.50;46.20
52245;DHT22;55759;51.586;-1.758;2023-06-24T15:14:18;36.50;39.60
52245;DHT22;55759;51.586;-1.758;2023-06-24T15:16:43;36.60;39.00
52245;DHT22;55759;51.586;-1.758;2023-06-24T15:19:09;36.80;38.80
52245;DHT22;55759;51.586;-1.758;2023-06-24T15:21:35;37.30;34.80
52245;DHT22;55759;51.586;-1.758;2023-06-24T15:24:13;39.10;37.90
52245;DHT22;55759;51.586;-1.758;2023-06-24T15:26:41;41.20;37.30
52245;DHT22;55759;51.586;-1.758;2023-06-24T15:29:07;41.60;31.50
52245;DHT22;55759;51.586;-1.758;2023-06-24T15:31:32;41.90;38.70
52245;DHT22;55759;51.586;-1.758;2023-06-24T15:33:58;42.00;36.40
52245;DHT22;55759;51.586;-1.758;2023-06-24T15:36:23;41.50;37.00
52245;DHT22;55759;51.586;-1.758;2023-06-24T15:38:52;41.00;33.80
52245;DHT22;55759;51.586;-1.758;2023-06-24T15:41:18;40.20;35.00
52245;DHT22;55759;51.586;-1.758;2023-06-24T15:43:43;39.90;38.30
52245;DHT22;55759;51.586;-1.758;2023-06-24T15:46:09;39.60;35.80
52245;DHT22;55759;51.586;-1.758;2023-06-24T15:48:35;39.40;37.10
52245;DHT22;55759;51.586;-1.758;2023-06-24T15:51:02;39.10;38.00
52245;DHT22;55759;51.586;-1.758;2023-06-24T15:53:28;38.30;37.20
52245;DHT22;55759;51.586;-1.758;2023-06-24T15:55:54;37.60;33.40
52245;DHT22;55759;51.586;-1.758;2023-06-24T15:58:19;36.80;40.80
52245;DHT22;55759;51.586;-1.758;2023-06-24T16:00:45;36.60;40.50
52245;DHT22;55759;51.586;-1.758;2023-06-24T16:03:14;37.60;42.70
52245;DHT22;55759;51.586;-1.758;2023-06-24T16:05:39;39.20;37.40
52245;DHT22;55759;51.586;-1.758;2023-06-24T16:08:05;41.90;37.10
52245;DHT22;55759;51.586;-1.758;2023-06-24T16:10:31;43.00;37.60
52245;DHT22;55759;51.586;-1.758;2023-06-24T16:12:56;42.30;32.20
52245;DHT22;55759;51.586;-1.758;2023-06-24T16:15:22;41.00;32.20
52245;DHT22;55759;51.586;-1.758;2023-06-24T16:17:50;40.00;29.00
52245;DHT22;55759;51.586;-1.758;2023-06-24T16:20:16;40.30;33.20
52245;DHT22;55759;51.586;-1.758;2023-06-24T16:22:42;42.40;30.50
52245;DHT22;55759;51.586;-1.758;2023-06-24T16:25:08;44.40;29.20
52245;DHT22;55759;51.586;-1.758;2023-06-24T16:27:34;46.20;28.10
52245;DHT22;55759;51.586;-1.758;2023-06-24T16:29:59;47.70;29.10
52245;DHT22;55759;51.586;-1.758;2023-06-24T16:32:27;48.60;29.30
52245;DHT22;55759;51.586;-1.758;2023-06-24T16:34:53;49.60;25.90
52245;DHT22;55759;51.586;-1.758;2023-06-24T16:37:21;50.50;24.30
52245;DHT22;55759;51.586;-1.758;2023-06-24T16:39:47;51.30;26.20